Home > Products > Valid Products > MTR

000
SAUS44 KSHV 212033
MTRBKB
SPECI KBKB 212032Z AUTO 00000KT 10SM BKN028 18/09 A2996 RMK AO2
T01830094 $





000
SAUS44 KSHV 211957
MTRAQV
METAR KAQV 211956Z AUTO 12003KT 10SM CLR 17/08 A2998 RMK AO2 SLP153
T01720078 $





000
SAUS44 KSHV 211957
MTRAQV
METAR KAQV 211956Z AUTO 12003KT 10SM CLR 17/08 A2998 RMK AO2 SLP153
T01720078 $





000
SAUS44 KSHV 211955
MTRBKB
METAR KBKB 211954Z AUTO 00000KT 10SM CLR 18/09 A2998 RMK AO2 SLP423
T01780089 $





000
SAUS44 KSHV 211955
MTRBKB
METAR KBKB 211954Z AUTO 00000KT 10SM CLR 18/09 A2998 RMK AO2 SLP423
T01780089 $





000
SAUS44 KSHV 211857
MTRAQV
METAR KAQV 211856Z AUTO 00000KT 10SM CLR 17/08 A3001 RMK AO2 SLP161
T01670083 $





000
SAUS44 KSHV 211855
MTRBKB
METAR KBKB 211854Z AUTO VRB03KT 10SM CLR 17/08 A3000 RMK AO2 SLP431
T01720083 $





000
SAUS44 KSHV 211757
MTRAQV
METAR KAQV 211756Z AUTO 00000KT 10SM CLR 15/08 A3006 RMK AO2 SLP179
T01500078 10150 20011 58023 $





000
SAUS44 KSHV 211755
MTRBKB
METAR KBKB 211754Z AUTO VRB03KT 10SM CLR 17/08 A3005 RMK AO2 PRESFR
SLP448 T01670083 10167 20033 58025 $





000
SAUS44 KSHV 211657
MTRAQV
METAR KAQV 211656Z AUTO 18004KT 10SM CLR 12/07 A3009 RMK AO2 SLP191
T01220072 $





000
SAUS44 KSHV 211655
MTRBKB
METAR KBKB 211654Z AUTO 00000KT 10SM CLR 14/07 A3008 RMK AO2 SLP216
T01440072 $





000
SAUS44 KSHV 211557
MTRAQV
METAR KAQV 211556Z AUTO 00000KT 10SM CLR 10/07 A3010 RMK AO2 SLP196
T01000072 $





000
SAUS44 KSHV 211555
MTRBKB
METAR KBKB 211554Z AUTO 13004KT 10SM CLR 12/07 A3010 RMK AO2 SLP222
T01170067 $





000
SAUS44 KSHV 211457
MTRAQV
METAR KAQV 211456Z AUTO 00000KT 9SM CLR 08/06 A3013 RMK AO2 SLP203
T00780061 50005 $





000
SAUS44 KSHV 211455
MTRBKB
METAR KBKB 211454Z AUTO 00000KT 10SM CLR 09/06 A3012 RMK AO2 SLP230
T00890061 50009 $





000
SAUS44 KSHV 211357
MTRAQV
METAR KAQV 211356Z AUTO 00000KT 5SM BR CLR 03/02 A3013 RMK AO2
SLP205 T00330022 $





000
SAUS44 KSHV 211357
MTRAQV
METAR KAQV 211356Z AUTO 00000KT 5SM BR CLR 03/02 A3013 RMK AO2
SLP205 T00330022 $





000
SAUS44 KSHV 211356
MTRBKB
METAR KBKB 211354Z AUTO 00000KT 3SM BR CLR 04/03 A3012 RMK AO2
SLP232 T00440028 $





000
SAUS44 KSHV 211356
MTRBKB
METAR KBKB 211354Z AUTO 00000KT 3SM BR CLR 04/03 A3012 RMK AO2
SLP232 T00440028 $





000
SAUS44 KSHV 211341
MTRAQV
SPECI KAQV 211340Z AUTO 00000KT 3SM BR FEW002 02/01 A3013 RMK AO2
T00220011 $





000
SAUS44 KSHV 211341
MTRAQV
SPECI KAQV 211340Z AUTO 00000KT 3SM BR FEW002 02/01 A3013 RMK AO2
T00220011 $





000
SAUS44 KSHV 211336
MTRAQV
SPECI KAQV 211334Z AUTO 00000KT 1 1/4SM BR SCT002 02/01 A3013 RMK
AO2 T00170006 $





000
SAUS44 KSHV 211336
MTRAQV
SPECI KAQV 211334Z AUTO 00000KT 1 1/4SM BR SCT002 02/01 A3013 RMK
AO2 T00170006 $





000
SAUS44 KSHV 211308
MTRAQV
SPECI KAQV 211307Z AUTO 00000KT 1/2SM FG VV002 02/01 A3012 RMK AO2
T00170006 $





000
SAUS44 KSHV 211308
MTRAQV
SPECI KAQV 211307Z AUTO 00000KT 1/2SM FG VV002 02/01 A3012 RMK AO2
T00170006 $





000
SAUS44 KSHV 211257
MTRAQV
METAR KAQV 211256Z AUTO 00000KT 1 1/2SM BR BKN002 02/01 A3012 RMK
AO2 SLP202 T00170006 $





000
SAUS44 KSHV 211257
MTRAQV
METAR KAQV 211256Z AUTO 00000KT 1 1/2SM BR BKN002 02/01 A3012 RMK
AO2 SLP202 T00170006 $





000
SAUS44 KSHV 211255
MTRBKB
METAR KBKB 211254Z AUTO 00000KT 4SM BR CLR 04/02 A3011 RMK AO2
SLP227 T00390017 $





000
SAUS44 KSHV 211255
MTRBKB
METAR KBKB 211254Z AUTO 00000KT 4SM BR CLR 04/02 A3011 RMK AO2
SLP227 T00390017 $





000
SAUS44 KSHV 211244
MTRAQV
SPECI KAQV 211242Z AUTO 00000KT 2 1/2SM BR BKN003 01/00 A3012 RMK
AO2 T00110000 $





000
SAUS44 KSHV 211244
MTRAQV
SPECI KAQV 211242Z AUTO 00000KT 2 1/2SM BR BKN003 01/00 A3012 RMK
AO2 T00110000 $





000
SAUS44 KSHV 211240
MTRAQV
SPECI KAQV 211239Z AUTO 00000KT 3SM BR SCT003 01/00 A3012 RMK AO2
T00110000 $





000
SAUS44 KSHV 211240
MTRAQV
SPECI KAQV 211239Z AUTO 00000KT 3SM BR SCT003 01/00 A3012 RMK AO2
T00110000 $





000
SAUS44 KSHV 211157
MTRAQV
METAR KAQV 211156Z AUTO 00000KT 5SM BR CLR 02/01 A3011 RMK AO2
SLP198 7//// T00170006 10050 20017 56007 $





000
SAUS44 KSHV 211157
MTRAQV
METAR KAQV 211156Z AUTO 00000KT 5SM BR CLR 02/01 A3011 RMK AO2
SLP198 7//// T00170006 10050 20017 56007 $





000
SAUS44 KSHV 211156
MTRBKB
METAR KBKB 211154Z AUTO 00000KT 5SM BR CLR 04/02 A3009 RMK AO2
SLP221 T00440022 10067 20039 56011 $





000
SAUS44 KSHV 211057
MTRAQV
METAR KAQV 211056Z AUTO 00000KT 7SM CLR 03/01 A3011 RMK AO2 SLP199
T00280011 $





000
SAUS44 KSHV 211057
MTRAQV
METAR KAQV 211056Z AUTO 00000KT 7SM CLR 03/01 A3011 RMK AO2 SLP199
T00280011 $





000
SAUS44 KSHV 211056
MTRBKB
METAR KBKB 211054Z AUTO 00000KT 3SM BR CLR 04/02 A3010 RMK AO2
SLP223 T00440022 $





000
SAUS44 KSHV 211056
MTRBKB
METAR KBKB 211054Z AUTO 00000KT 3SM BR CLR 04/02 A3010 RMK AO2
SLP223 T00440022 $





000
SAUS44 KSHV 210957
MTRAQV
METAR KAQV 210956Z AUTO 00000KT 5SM BR CLR 02/01 A3012 RMK AO2
SLP202 T00220011 $





000
SAUS44 KSHV 210957
MTRAQV
METAR KAQV 210956Z AUTO 00000KT 5SM BR CLR 02/01 A3012 RMK AO2
SLP202 T00220011 $





000
SAUS44 KSHV 210956
MTRBKB
METAR KBKB 210954Z AUTO 00000KT 4SM BR CLR 05/03 A3012 RMK AO2
SLP228 T00500028 $





000
SAUS44 KSHV 210956
MTRBKB
METAR KBKB 210954Z AUTO 00000KT 4SM BR CLR 05/03 A3012 RMK AO2
SLP228 T00500028 $





000
SAUS44 KSHV 210928
MTRBKB
SPECI KBKB 210927Z AUTO 00000KT 3SM BR CLR 04/03 A3012 RMK AO2
T00440028 $





000
SAUS44 KSHV 210921
MTRBKB
SPECI KBKB 210920Z AUTO 00000KT 2 1/2SM BR CLR 05/03 A3012 RMK AO2
T00500028 $





000
SAUS44 KSHV 210858
MTRAQV
METAR KAQV 210856Z AUTO 00000KT 5SM BR CLR 03/02 A3013 RMK AO2
SLP205 T00280017 56014 $





000
SAUS44 KSHV 210856
MTRBKB
METAR KBKB 210854Z AUTO 00000KT 3SM BR CLR 05/03 A3013 RMK AO2
SLP231 T00500028 56013 $





000
SAUS44 KSHV 210819
MTRAQV
SPECI KAQV 210818Z AUTO 00000KT 3SM BR CLR 03/02 A3014 RMK AO2
T00330022 $





000
SAUS44 KSHV 210806
MTRAQV
SPECI KAQV 210805Z AUTO 00000KT 2 1/2SM BR CLR 03/02 A3014 RMK AO2
T00330022 $





000
SAUS44 KSHV 210757
MTRAQV
METAR KAQV 210756Z AUTO 00000KT 3SM BR CLR 03/02 A3014 RMK AO2
SLP209 T00330022 $





000
SAUS44 KSHV 210756
MTRBKB
METAR KBKB 210754Z AUTO 00000KT 4SM BR CLR 06/04 A3013 RMK AO2
SLP232 T00560039 $





000
SAUS44 KSHV 210746
MTRAQV
SPECI KAQV 210745Z AUTO 00000KT 2SM BR CLR 04/03 A3015 RMK AO2
T00390028 $





000
SAUS44 KSHV 210657
MTRAQV
METAR KAQV 210656Z AUTO 00000KT 4SM BR FEW002 04/03 A3016 RMK AO2
SLP213 T00440033 $





000
SAUS44 KSHV 210655
MTRBKB
METAR KBKB 210654Z AUTO 03003KT 5SM BR CLR 06/04 A3015 RMK AO2
SLP237 T00610039 $





000
SAUS44 KSHV 210607
MTRAQV
SPECI KAQV 210606Z AUTO 36004KT 4SM BR FEW002 04/03 A3017 RMK AO2
T00440033 $





000
SAUS44 KSHV 210607
MTRAQV
SPECI KAQV 210606Z AUTO 36004KT 4SM BR FEW002 04/03 A3017 RMK AO2
T00440033 $





000
SAUS44 KSHV 210557
MTRAQV
METAR KAQV 210556Z AUTO 36003KT 2 1/2SM BR FEW002 04/03 A3017 RMK
AO2 SLP219 T00440033 10078 20039 401220039 56002 $





000
SAUS44 KSHV 210555
MTRBKB
METAR KBKB 210554Z AUTO 35003KT 5SM BR CLR 06/04 A3017 RMK AO2
SLP245 T00610044 10100 20061 401500061 56002 $





000
SAUS44 KSHV 210536
MTRAQV
SPECI KAQV 210534Z AUTO 00000KT 2 1/2SM BR SCT002 04/03 A3018 RMK
AO2 T00440033 $





000
SAUS44 KSHV 210521
MTRAQV
SPECI KAQV 210520Z AUTO 36003KT 3SM BR SCT002 04/03 A3018 RMK AO2
T00440033 $





000
SAUS44 KSHV 210457
MTRAQV
METAR KAQV 210456Z AUTO 36003KT 3SM BR CLR 04/03 A3018 RMK AO2
SLP221 T00390028 $





000
SAUS44 KSHV 210457
MTRAQV
METAR KAQV 210456Z AUTO 36003KT 3SM BR CLR 04/03 A3018 RMK AO2
SLP221 T00390028 $





000
SAUS44 KSHV 210456
MTRBKB
METAR KBKB 210454Z AUTO 00000KT 6SM BR CLR 07/04 A3017 RMK AO2
SLP246 T00670044 $





000
SAUS44 KSHV 210456
MTRBKB
METAR KBKB 210454Z AUTO 00000KT 6SM BR CLR 07/04 A3017 RMK AO2
SLP246 T00670044 $





000
SAUS44 KSHV 210357
MTRAQV
METAR KAQV 210356Z AUTO 01003KT 4SM BR CLR 05/04 A3018 RMK AO2
SLP220 T00500039 $





000
SAUS44 KSHV 210357
MTRAQV
METAR KAQV 210356Z AUTO 01003KT 4SM BR CLR 05/04 A3018 RMK AO2
SLP220 T00500039 $





000
SAUS44 KSHV 210355
MTRBKB
METAR KBKB 210354Z AUTO 02003KT 7SM CLR 07/05 A3017 RMK AO2 SLP246
T00720050 $





000
SAUS44 KSHV 210355
MTRBKB
METAR KBKB 210354Z AUTO 02003KT 7SM CLR 07/05 A3017 RMK AO2 SLP246
T00720050 $





000
SAUS44 KSHV 210257
MTRAQV
METAR KAQV 210256Z AUTO 00000KT 4SM BR CLR 05/04 A3018 RMK AO2
SLP222 T00500039 51009 $





000
SAUS44 KSHV 210255
MTRBKB
METAR KBKB 210254Z AUTO VRB03KT 08/05 A3017 RMK AO2 SLP247 T00780050
$





000
SAUS44 KSHV 210157
MTRAQV
METAR KAQV 210156Z AUTO 00000KT 5SM BR CLR 06/04 A3017 RMK AO2
SLP219 T00560044 $





000
SAUS44 KSHV 210155
MTRBKB
METAR KBKB 210154Z AUTO 00000KT 10SM CLR 08/06 A3016 RMK AO2 SLP243
T00780056 $





000
SAUS44 KSHV 210057
MTRAQV
METAR KAQV 210056Z AUTO 00000KT 7SM CLR 07/05 A3017 RMK AO2 SLP217
T00670050 $





000
SAUS44 KSHV 210055
MTRBKB
METAR KBKB 210054Z AUTO 00000KT 10SM CLR 09/06 A3015 RMK AO2 SLP241
T00890061 $





000
SAUS44 KSHV 202357
MTRAQV
METAR KAQV 202356Z AUTO 00000KT 10SM CLR 08/06 A3015 RMK AO2 SLP212
T00780056 10122 20078 51003 $





000
SAUS44 KSHV 202355
MTRBKB
METAR KBKB 202354Z AUTO 00000KT 10SM CLR 09/07 A3014 RMK AO2 SLP235
T00940067 10150 20094 50005 $





000
SAUS44 KSHV 202257
MTRAQV
METAR KAQV 202256Z AUTO 00000KT 10SM FEW016 09/06 A3015 RMK AO2
SLP212 T00940061 $





000
SAUS44 KSHV 202255
MTRAQV
SPECI KAQV 202254Z AUTO 35003KT 10SM SCT016 09/06 A3015 RMK AO2 $





000
SAUS44 KSHV 202255
MTRBKB
METAR KBKB 202254Z AUTO 35003KT 10SM CLR 12/07 A3014 RMK AO2 SLP235
T01170067 $





000
SAUS44 KSHV 202157
MTRAQV
METAR KAQV 202156Z AUTO 36007KT 10SM BKN016 11/06 A3015 RMK AO2
SLP209 T01060061





000
SAUS44 KSHV 202156
MTRBKB
METAR KBKB 202154Z AUTO VRB03KT 10SM FEW020 13/07 A3013 RMK AO2
SLP231 T01280067 $





000
SAUS44 KSHV 202115
MTRAQV
SPECI KAQV 202114Z AUTO 01008KT 10SM BKN017 11/06 A3014 RMK AO2
T01110061





000
SAUS44 KSHV 202106
MTRAQV
SPECI KAQV 202105Z AUTO VRB04KT 10SM SCT017 12/06 A3015 RMK AO2
T01170061





000
SAUS44 KSHV 202057
MTRAQV
METAR KAQV 202056Z AUTO 03006KT 10SM BKN016 11/06 A3014 RMK AO2
SLP208 T01110061 56017





000
SAUS44 KSHV 202055
MTRBKB
METAR KBKB 202054Z AUTO VRB03KT 10SM FEW021 14/07 A3012 RMK AO2
SLP229 T01440067 56019 $





000
SAUS44 KSHV 201958
MTRAQV
METAR KAQV 201956Z AUTO 01008KT 10SM BKN016 11/06 A3015 RMK AO2
SLP212 T01110061





000
SAUS44 KSHV 201956
MTRBKB
METAR KBKB 201954Z AUTO VRB05KT 10SM SCT019 14/07 A3013 RMK AO2
SLP231 T01440067 $





000
SAUS44 KSHV 201947
MTRBKB
SPECI KBKB 201946Z AUTO VRB04KT 10SM BKN019 14/07 A3013 RMK AO2
T01390067 $





000
SAUS44 KSHV 201938
MTRBKB
SPECI KBKB 201937Z AUTO VRB05KT 10SM SCT019 14/07 A3013 RMK AO2
T01390067 $





000
SAUS44 KSHV 201931
MTRBKB
SPECI KBKB 201930Z AUTO VRB03KT 10SM BKN019 13/07 A3013 RMK AO2
T01330067 $





000
SAUS44 KSHV 201919
MTRAQV
SPECI KAQV 201918Z AUTO 01007KT 10SM BKN015 11/07 A3015 RMK AO2
T01110067





000
SAUS44 KSHV 201913
MTRAQV
SPECI KAQV 201911Z AUTO 01005KT 10SM BKN014 12/06 A3016 RMK AO2
T01170061





000
SAUS44 KSHV 201907
MTRBKB
SPECI KBKB 201905Z AUTO VRB06KT 10SM SCT017 14/07 A3014 RMK AO2
T01390067 $





000
SAUS44 KSHV 201905
MTRAQV
SPECI KAQV 201904Z AUTO VRB06KT 10SM SCT014 12/07 A3017 RMK AO2
T01220067





000
SAUS44 KSHV 201857
MTRAQV
METAR KAQV 201856Z AUTO VRB05KT 10SM BKN014 11/07 A3017 RMK AO2
SLP217 T01110067





000
SAUS44 KSHV 201855
MTRBKB
METAR KBKB 201854Z AUTO VRB04KT 10SM BKN016 14/07 A3014 RMK AO2
SLP237 T01390067 $





000
SAUS44 KSHV 201826
MTRBKB
SPECI KBKB 201824Z AUTO 02006KT 10SM OVC016 13/07 A3016 RMK AO2
T01330067 $





000
SAUS44 KSHV 201758
MTRAQV
METAR KAQV 201756Z AUTO 03006KT 10SM OVC011 10/07 A3019 RMK AO2 CIG
009V014 SLP226 6//// T01000067 10106 20083 58002





000
SAUS44 KSHV 201756
MTRBKB
METAR KBKB 201754Z AUTO VRB05KT 10SM OVC014 13/07 A3018 RMK AO2
SLP248 T01280067 10128 20094 58004 $





000
SAUS44 KSHV 201726
MTRAQV
SPECI KAQV 201725Z AUTO 02007KT 350V060 10SM OVC010 09/07 A3020 RMK
AO2 CIG 009V013 T00940067





000
SAUS44 KSHV 201703
MTRBKB
SPECI KBKB 201702Z AUTO VRB04KT 10SM OVC012 11/07 A3019 RMK AO2
T01060067 $





000
SAUS44 KSHV 201657
MTRAQV
METAR KAQV 201656Z AUTO 36008KT 10SM OVC009 09/07 A3022 RMK AO2
SLP233 T00940067





000
SAUS44 KSHV 201656
MTRBKB
METAR KBKB 201654Z AUTO 03006KT 10SM BKN009 OVC014 10/07 A3020 RMK
AO2 CIG 008V012 SLP255 T01000067 $





000
SAUS44 KSHV 201557
MTRAQV
METAR KAQV 201556Z AUTO 36006KT 10SM OVC007 09/07 A3022 RMK AO2 CIG
005V010 SLP233 T00890072





000
SAUS44 KSHV 201556
MTRBKB
METAR KBKB 201554Z AUTO VRB04KT 10SM OVC006 10/07 A3020 RMK AO2
SLP256 T01000067 $





000
SAUS44 KSHV 201520
MTRBKB
SPECI KBKB 201519Z AUTO VRB04KT 10SM OVC005 09/07 A3020 RMK AO2 CIG
004V009 T00940067 $





000
SAUS44 KSHV 201505
MTRAQV
SPECI KAQV 201503Z AUTO 03007KT 10SM OVC006 08/07 A3020 RMK AO2 CIG
004V009 T00830067





000
SAUS44 KSHV 201457
MTRAQV
METAR KAQV 201456Z AUTO 03008KT 10SM OVC004 08/07 A3020 RMK AO2 CIG
004V008 SLP228 6//// T00830067 51018





000
SAUS44 KSHV 201455
MTRBKB
METAR KBKB 201454Z AUTO 05003KT 10SM OVC004 09/07 A3019 RMK AO2
SLP252 T00940072 51019 $





000
SAUS44 KSHV 201357
MTRAQV
METAR KAQV 201356Z AUTO 03003KT 4SM BR OVC003 08/07 A3019 RMK AO2
SLP226 T00830072





000
SAUS44 KSHV 201355
MTRBKB
METAR KBKB 201354Z AUTO VRB03KT 6SM BR OVC003 09/07 A3017 RMK AO2
SLP245 T00940072 $





000
SAUS44 KSHV 201257
MTRAQV
METAR KAQV 201256Z AUTO 03004KT 7SM OVC003 08/07 A3017 RMK AO2
SLP218 T00830072 PNO $





000
SAUS44 KSHV 201255
MTRBKB
METAR KBKB 201254Z AUTO VRB03KT 7SM OVC003 09/07 A3016 RMK AO2
SLP242 T00940072 $





000
SAUS44 KSHV 201157
MTRAQV
METAR KAQV 201156Z AUTO 01006KT 6SM BR OVC003 08/07 A3015 RMK AO2
SLP210 6//// 7//// T00830072 10089 20083 53004 PNO $





000
SAUS44 KSHV 201155
MTRBKB
METAR KBKB 201154Z AUTO 03005KT 9SM OVC003 09/07 A3013 RMK AO2
SLP233 70065 T00940072 10100 20094 53007 $





000
SAUS44 KSHV 201057
MTRAQV
METAR KAQV 201056Z AUTO VRB05KT 7SM OVC003 08/07 A3014 RMK AO2
SLP209 T00830072 PNO $





000
SAUS44 KSHV 201055
MTRBKB
METAR KBKB 201054Z AUTO VRB04KT 9SM OVC003 09/07 A3012 RMK AO2
SLP229 T00940072 $





000
SAUS44 KSHV 200957
MTRAQV
METAR KAQV 200956Z AUTO 03005KT 8SM OVC004 09/07 A3013 RMK AO2
SLP205 T00890072 PNO $





000
SAUS44 KSHV 200955
MTRBKB
METAR KBKB 200954Z AUTO VRB06KT 10SM OVC004 09/07 A3012 RMK AO2
SLP227 T00940072 $





000
SAUS44 KSHV 200945
MTRAQV
SPECI KAQV 200944Z AUTO 36006KT 10SM OVC004 09/08 A3013 RMK AO2
T00890078 PNO $





000
SAUS44 KSHV 200857
MTRAQV
METAR KAQV 200856Z AUTO VRB06KT 10SM OVC005 09/08 A3013 RMK AO2
SLP206 6//// T00890078 58001 PNO $





000
SAUS44 KSHV 200855
MTRBKB
METAR KBKB 200854Z AUTO VRB05KT 5SM BR OVC004 09/07 A3011 RMK AO2
SLP225 T00940072 58002 $





000
SAUS44 KSHV 200807
MTRBKB
SPECI KBKB 200806Z AUTO VRB04KT 8SM OVC004 09/08 A3012 RMK AO2
T00940078 $





000
SAUS44 KSHV 200757
MTRAQV
METAR KAQV 200756Z AUTO 04006KT 10SM OVC005 09/08 A3014 RMK AO2
SLP207 T00890078 PNO $





000
SAUS44 KSHV 200757
MTRAQV
METAR KAQV 200756Z AUTO 04006KT 10SM OVC005 09/08 A3014 RMK AO2
SLP207 T00890078 PNO $





000
SAUS44 KSHV 200755
MTRBKB
METAR KBKB 200754Z AUTO VRB05KT 9SM OVC005 09/08 A3012 RMK AO2
SLP229 T00940078 $





000
SAUS44 KSHV 200755
MTRBKB
METAR KBKB 200754Z AUTO VRB05KT 9SM OVC005 09/08 A3012 RMK AO2
SLP229 T00940078 $





000
SAUS44 KSHV 200658
MTRAQV
METAR KAQV 200656Z AUTO 03007KT 10SM OVC005 09/07 A3014 RMK AO2
SLP206 T00890072 PNO $





000
SAUS44 KSHV 200655
MTRBKB
METAR KBKB 200654Z AUTO 02006KT 10SM OVC006 10/07 A3012 RMK AO2
SLP472 T01000072 $





000
SAUS44 KSHV 200633
MTRAQV
SPECI KAQV 200632Z AUTO 01005KT 10SM OVC005 09/08 A3014 RMK AO2
T00890078 PNO $





000
SAUS44 KSHV 200631
MTRBKB
SPECI KBKB 200630Z AUTO VRB04KT 10SM OVC005 09/08 A3012 RMK AO2 CIG
003V008 T00940078 $





000
SAUS44 KSHV 200601 COR
MTRAQV
METAR KAQV 200556Z AUTO VRB06KT 9SM OVC004 09/08 A3014 RMK AO2 RAE02
SLP205 6//// T00890078 10094 20089 401170089 51002 PNO $





000
SAUS44 KSHV 200559 COR
MTRAQV
METAR KAQV 200556Z AUTO VRB06KT 9SM OVC004 09/08 A3014 RMK AO2 RAE02
SLP205 6//// T00890078 10094 20089 401170089 51002 PNO $





000
SAUS44 KSHV 200558 COR
MTRAQV
METAR KAQV 200556Z AUTO VRB06KT 9SM OVC004 09/08 A3014 RMK AO2 RAE02
SLP205 6//// T00890078 10094 20089 401170089 51002 PNO $





000
SAUS44 KSHV 200557
MTRAQV
METAR KAQV 200556Z AUTO VRB06KT 9SM OVC004 09/08 A3014 RMK AO2 RAE02
SLP205 6//// T00890078 10094 20089 401170089 51002 PNO $





000
SAUS44 KSHV 200557 COR
MTRBKB
METAR KBKB 200554Z AUTO VRB03KT 4SM BR OVC004 09/08 A3012 RMK AO2
SLP472 60000 T00940078 10106 20094 401330094 50004 $





000
SAUS44 KSHV 200556 COR
MTRBKB
METAR KBKB 200554Z AUTO VRB03KT 4SM BR OVC004 09/08 A3012 RMK AO2
SLP472 60000 T00940078 10106 20094 401330094 50004 $





000
SAUS44 KSHV 200516
MTRAQV
SPECI KAQV 200515Z AUTO 04004KT 9SM OVC004 09/08 A3013 RMK AO2 RAE02
T00890078 PNO $





000
SAUS44 KSHV 200457
MTRAQV
METAR KAQV 200456Z AUTO 03005KT 5SM -RA BR OVC005 09/08 A3014 RMK
AO2 RAB0358E18B50 SLP205 T00890078 PNO $





000
SAUS44 KSHV 200455
MTRBKB
METAR KBKB 200454Z AUTO VRB05KT 5SM BR OVC004 09/08 A3012 RMK AO2
SLP229 T00940078 $





000
SAUS44 KSHV 200444
MTRAQV
SPECI KAQV 200443Z AUTO VRB04KT 6SM BR OVC005 09/08 A3013 RMK AO2
RAB0358E18 T00890078 PNO $





000
SAUS44 KSHV 200432
MTRAQV
SPECI KAQV 200431Z AUTO VRB05KT 6SM BR OVC004 09/08 A3013 RMK AO2
RAB0358E18 T00890078 PNO $





000
SAUS44 KSHV 200357
MTRAQV
METAR KAQV 200356Z AUTO 02007KT 6SM BR OVC005 09/08 A3014 RMK AO2
SLP205 T00890078 PNO $





000
SAUS44 KSHV 200357
MTRAQV
METAR KAQV 200356Z AUTO 02007KT 6SM BR OVC005 09/08 A3014 RMK AO2
SLP205 T00890078 PNO $





000
SAUS44 KSHV 200355
MTRBKB
METAR KBKB 200354Z AUTO VRB05KT 4SM BR OVC002 09/08 A3012 RMK AO2
SLP229 T00940078 $





000
SAUS44 KSHV 200355
MTRBKB
METAR KBKB 200354Z AUTO VRB05KT 4SM BR OVC002 09/08 A3012 RMK AO2
SLP229 T00940078 $





000
SAUS44 KSHV 200346
MTRAQV
SPECI KAQV 200345Z AUTO 01008KT 10SM OVC005 09/08 A3013 RMK AO2
T00890078 PNO $





000
SAUS44 KSHV 200346
MTRAQV
SPECI KAQV 200345Z AUTO 01008KT 10SM OVC005 09/08 A3013 RMK AO2
T00890078 PNO $





000
SAUS44 KSHV 200257
MTRAQV
METAR KAQV 200256Z AUTO 03006KT 10SM OVC003 09/08 A3013 RMK AO2
SLP203 6//// T00890078 51021 PNO $





000
SAUS44 KSHV 200256
MTRBKB
METAR KBKB 200254Z AUTO VRB06KT 6SM BR OVC003 10/08 A3011 RMK AO2
SLP468 60000 T01000078 51021 $





000
SAUS44 KSHV 200157
MTRAQV
METAR KAQV 200156Z AUTO 02008KT 10SM OVC003 09/08 A3011 RMK AO2
SLP197 T00890078 PNO $





000
SAUS44 KSHV 200157
MTRAQV
METAR KAQV 200156Z AUTO 02008KT 10SM OVC003 09/08 A3011 RMK AO2
SLP197 T00890078 PNO $





000
SAUS44 KSHV 200156
MTRBKB
METAR KBKB 200154Z AUTO VRB06KT 10SM OVC004 11/08 A3009 RMK AO2
SLP462 T01060083 $





000
SAUS44 KSHV 200156
MTRBKB
METAR KBKB 200154Z AUTO VRB06KT 10SM OVC004 11/08 A3009 RMK AO2
SLP462 T01060083 $





000
SAUS44 KSHV 200057
MTRAQV
METAR KAQV 200056Z AUTO 01007KT 10SM OVC003 09/08 A3010 RMK AO2
SLP194 T00890078 PNO $





000
SAUS44 KSHV 200055
MTRBKB
METAR KBKB 200054Z AUTO VRB05KT 10SM OVC005 11/08 A3007 RMK AO2
RAB09E19 SLP454 P0000 T01060083 $





000
SAUS44 KSHV 200022
MTRAQV
SPECI KAQV 200020Z AUTO 02005KT 10SM OVC004 09/08 A3008 RMK AO2
T00940078 PNO $





000
SAUS44 KSHV 192357 COR
MTRBKB
METAR KBKB 192354Z AUTO VRB06KT 10SM OVC005 11/08 A3005 RMK AO2
RAE2256B19E43 SLP447 P0001 60022 T01060083 10133 20106 56004 $





000
SAUS44 KSHV 192357
MTRAQV
METAR KAQV 192356Z AUTO 03005KT 10SM OVC005 09/08 A3007 RMK AO2
RAE43 SLP182 6//// T00940078 10111 20089 53002 PNO $





000
SAUS44 KSHV 192356 COR
MTRBKB
METAR KBKB 192354Z AUTO VRB06KT 10SM OVC005 11/08 A3005 RMK AO2
RAE2256B19E43 SLP447 P0001 60022 T01060083 10133 20106 56004 $





000
SAUS44 KSHV 192257
MTRAQV
METAR KAQV 192256Z AUTO 08008KT 060V120 10SM -RA OVC006 09/08 A3006
RMK AO2 CIG 004V009 SLP178 T00890078 PNO $





000
SAUS44 KSHV 192256
MTRBKB
METAR KBKB 192254Z AUTO VRB03KT 10SM -RA OVC006 11/09 A3005 RMK AO2
SLP450 P0002 T01110089 $





000
SAUS44 KSHV 192157
MTRAQV
METAR KAQV 192156Z AUTO 04008KT 10SM -RA OVC006 09/08 A3007 RMK AO2
SLP181 T00940078 PNO $





000
SAUS44 KSHV 192156
MTRBKB
METAR KBKB 192154Z AUTO VRB06KT 10SM -RA OVC007 11/09 A3004 RMK AO2
CIG 005V010 SLP447 P0004 T01110089 $





000
SAUS44 KSHV 192057
MTRAQV
METAR KAQV 192056Z AUTO 03008KT 6SM RA BR OVC008 09/08 A3006 RMK AO2
CIG 004V011 SLP181 6//// T00940083 56017 PNO $





000
SAUS44 KSHV 192055
MTRBKB
METAR KBKB 192054Z AUTO 03005KT 10SM -RA OVC006 11/09 A3006 RMK AO2
CIG 003V010 SLP451 P0005 60015 T01110089 56008 $





000
SAUS44 KSHV 191957
MTRAQV
METAR KAQV 191956Z AUTO 01008KT 7SM -RA OVC006 10/08 A3008 RMK AO2
CIG 004V010 SLP186 T01000083 PNO $





000
SAUS44 KSHV 191957
MTRAQV
METAR KAQV 191956Z AUTO 01008KT 7SM -RA OVC006 10/08 A3008 RMK AO2
CIG 004V010 SLP186 T01000083 PNO $





000
SAUS44 KSHV 191956
MTRBKB
METAR KBKB 191954Z AUTO VRB04KT 7SM -RA OVC005 12/10 A3006 RMK AO2
CIG 004V008 SLP452 P0003 T01170100 $





000
SAUS44 KSHV 191956
MTRBKB
METAR KBKB 191954Z AUTO VRB04KT 7SM -RA OVC005 12/10 A3006 RMK AO2
CIG 004V008 SLP452 P0003 T01170100 $





000
SAUS44 KSHV 191857
MTRAQV
METAR KAQV 191856Z AUTO 02009KT 5SM RA BR OVC005 10/09 A3008 RMK AO2
CIG 004V010 SLP186 T01000089 PNO $





000
SAUS44 KSHV 191856
MTRBKB
METAR KBKB 191854Z AUTO VRB03KT 4SM -RA BR OVC005 13/11 A3006 RMK
AO2 CIG 003V010 SLP208 P0007 T01280106 $





000
SAUS44 KSHV 191856
MTRBKB
METAR KBKB 191854Z AUTO VRB03KT 4SM -RA BR OVC005 13/11 A3006 RMK
AO2 CIG 003V010 SLP208 P0007 T01280106 $





000
SAUS44 KSHV 191827
MTRAQV
SPECI KAQV 191826Z AUTO 36007G14KT 330V030 7SM -RA OVC005 11/09
A3010 RMK AO2 T01060094 PNO $





000
SAUS44 KSHV 191757
MTRAQV
METAR KAQV 191756Z AUTO 01008KT 4SM -RA BR OVC004 11/09 A3011 RMK
AO2 CIG 003V007 SLP198 6//// T01060094 10117 20106 50009 PNO $





000
SAUS44 KSHV 191756
MTRBKB
METAR KBKB 191754Z AUTO VRB05KT 5SM -RA BR OVC004 13/12 A3008 RMK
AO2 SLP216 P0011 60043 T01330117 10133 20122 58006 $





000
SAUS44 KSHV 191657
MTRAQV
METAR KAQV 191656Z AUTO 35005KT 4SM -RA BR OVC003 12/11 A3013 RMK
AO2 SLP203 T01170106 PNO $





000
SAUS44 KSHV 191656
MTRBKB
METAR KBKB 191654Z AUTO 10004KT 5SM RA BR OVC004 13/11 A3010 RMK AO2
SLP222 P0009 T01280111 $





000
SAUS44 KSHV 191557
MTRAQV
METAR KAQV 191556Z AUTO VRB03KT 6SM -RA BR OVC003 12/11 A3012 RMK
AO2 SLP199 T01170106 PNO $





000
SAUS44 KSHV 191555
MTRBKB
METAR KBKB 191554Z AUTO VRB04KT 5SM RA BR BKN004 BKN060 OVC075 13/11
A3009 RMK AO2 SLP218 P0007 T01280111 $





000
SAUS44 KSHV 191457
MTRAQV
METAR KAQV 191456Z AUTO VRB05KT 5SM -RA BR OVC003 11/10 A3009 RMK
AO2 SLP189 6//// T01110100 53003 PNO $





000
SAUS44 KSHV 191457 COR
MTRBKB
METAR KBKB 191454Z AUTO VRB03KT 4SM RA BR OVC004 13/11 A3010 RMK AO2
PRESFR SLP222 P0009 60016 T01280106 53013 $





000
SAUS44 KSHV 191456 COR
MTRBKB
METAR KBKB 191454Z AUTO VRB03KT 4SM RA BR OVC004 13/11 A3010 RMK AO2
PRESFR SLP222 P0009 60016 T01280106 53013 $





000
SAUS44 KSHV 191357
MTRAQV
METAR KAQV 191356Z AUTO VRB05KT 3SM RA BR OVC003 11/10 A3008 RMK AO2
SLP187 T01110100 PNO $





000
SAUS44 KSHV 191355
MTRBKB
METAR KBKB 191354Z AUTO VRB04KT 9SM -RA OVC004 12/11 A3007 RMK AO2
SLP212 P0005 T01220106 $





000
SAUS44 KSHV 191257
MTRAQV
METAR KAQV 191256Z AUTO VRB04KT 6SM -RA BR OVC002 11/10 A3008 RMK
AO2 SLP185 T01110100 PNO $





000
SAUS44 KSHV 191255
MTRBKB
METAR KBKB 191254Z AUTO VRB04KT 9SM -RA BKN004 BKN075 OVC090 12/10
A3006 RMK AO2 CIG 003V009 SLP209 P0002 T01220100 $





000
SAUS44 KSHV 191229
MTRBKB
SPECI KBKB 191227Z AUTO VRB04KT 10SM -RA BKN003 BKN022 OVC095 12/10
A3006 RMK AO2 P0001 T01220100 $





000
SAUS44 KSHV 191222
MTRBKB
SPECI KBKB 191220Z AUTO VRB03KT 10SM -RA SCT003 BKN055 OVC100 12/10
A3006 RMK AO2 P0001 T01220100 $





000
SAUS44 KSHV 191157
MTRAQV
METAR KAQV 191156Z AUTO 06004KT 4SM RA BR OVC003 11/10 A3008 RMK AO2
SLP186 6//// 7//// T01110100 10111 20106 50000 PNO $





000
SAUS44 KSHV 191155
MTRBKB
METAR KBKB 191154Z AUTO VRB03KT 3SM RA BR BKN004 BKN050 OVC070 12/10
A3006 RMK AO2 PRESFR SLP209 P0012 60035 70051 T01220100 10122 20117
50006 $





000
SAUS44 KSHV 191057
MTRAQV
METAR KAQV 191056Z AUTO VRB03KT 5SM -RA BR OVC002 11/10 A3008 RMK
AO2 SLP187 P0005 T01060100





000
SAUS44 KSHV 191055
MTRBKB
METAR KBKB 191054Z AUTO 00000KT 6SM -RA BR OVC003 12/10 A3008 RMK
AO2 SLP216 P0015 T01220100 $





000
SAUS44 KSHV 191047
MTRAQV
SPECI KAQV 191046Z AUTO 00000KT 4SM -RA BR OVC002 11/10 A3008 RMK
AO2 P0005 T01060100





000
SAUS44 KSHV 191019
MTRAQV
SPECI KAQV 191018Z AUTO 36005KT 2SM -RA BR OVC002 11/11 A3009 RMK
AO2 P0001 T01110106





000
SAUS44 KSHV 191019
MTRAQV
SPECI KAQV 191018Z AUTO 36005KT 2SM -RA BR OVC002 11/11 A3009 RMK
AO2 P0001 T01110106





000
SAUS44 KSHV 190957
MTRAQV
METAR KAQV 190956Z AUTO 00000KT 1 3/4SM -RA BR OVC002 11/10 A3008
RMK AO2 RAE11B56 SLP185 P0000 T01110100





000
SAUS44 KSHV 190957
MTRAQV
METAR KAQV 190956Z AUTO 00000KT 1 3/4SM -RA BR OVC002 11/10 A3008
RMK AO2 RAE11B56 SLP185 P0000 T01110100





000
SAUS44 KSHV 190955
MTRBKB
METAR KBKB 190954Z AUTO 00000KT 3SM RA BR OVC002 12/10 A3006 RMK AO2
SLP207 P0006 T01170100 $





000
SAUS44 KSHV 190955
MTRBKB
METAR KBKB 190954Z AUTO 00000KT 3SM RA BR OVC002 12/10 A3006 RMK AO2
SLP207 P0006 T01170100 $





000
SAUS44 KSHV 190950
MTRAQV
SPECI KAQV 190948Z AUTO 03005KT 2SM BR OVC002 11/10 A3007 RMK AO2
RAE11 P0000 T01110100





000
SAUS44 KSHV 190950
MTRAQV
SPECI KAQV 190948Z AUTO 03005KT 2SM BR OVC002 11/10 A3007 RMK AO2
RAE11 P0000 T01110100





000
SAUS44 KSHV 190857
MTRAQV
METAR KAQV 190856Z AUTO 01005KT 1 3/4SM -RA BR OVC002 11/10 A3008
RMK AO2 RAB11E22B42 SLP186 P0000 60000 T01110100 56008





000
SAUS44 KSHV 190856
MTRBKB
METAR KBKB 190854Z AUTO VRB03KT 4SM -RA BR OVC003 12/10 A3004 RMK
AO2 RAB37 PRESFR SLP203 P0002 60002 T01220100 58015 $





000
SAUS44 KSHV 190826
MTRBKB
SPECI KBKB 190825Z AUTO 03003KT 3SM BR OVC002 12/10 A3007 RMK AO2
T01170100 $





000
SAUS44 KSHV 190826
MTRBKB
SPECI KBKB 190825Z AUTO 03003KT 3SM BR OVC002 12/10 A3007 RMK AO2
T01170100 $





000
SAUS44 KSHV 190757
MTRAQV
METAR KAQV 190756Z AUTO 04004KT 1 1/2SM BR OVC002 11/10 A3008 RMK
AO2 SLP188 T01110100





000
SAUS44 KSHV 190755
MTRBKB
METAR KBKB 190754Z AUTO VRB03KT 2 1/2SM BR OVC002 12/10 A3009 RMK
AO2 PRESRR SLP217 T01170100 $





000
SAUS44 KSHV 190657
MTRAQV
METAR KAQV 190656Z AUTO 01004KT 1 1/2SM BR OVC002 11/10 A3009 RMK
AO2 SLP189 T01060100





000
SAUS44 KSHV 190655
MTRBKB
METAR KBKB 190654Z AUTO VRB03KT 2 1/2SM BR OVC002 12/10 A3006 RMK
AO2 SLP209 T01170100 $





000
SAUS44 KSHV 190629
MTRBKB
SPECI KBKB 190628Z AUTO VRB04KT 2SM BR OVC003 12/10 A3006 RMK AO2
T01170100 $





000
SAUS44 KSHV 190614
MTRBKB
SPECI KBKB 190613Z AUTO VRB03KT 1 3/4SM BR OVC003 12/10 A3008 RMK
AO2 T01170100 $





000
SAUS44 KSHV 190557 COR
MTRBKB
METAR KBKB 190554Z AUTO VRB03KT 2 1/2SM BR OVC003 12/10 A3009 RMK
AO2 SLP462 T01170100 10122 20117 401390106 56007 $





000
SAUS44 KSHV 190557
MTRAQV
METAR KAQV 190556Z AUTO 03005KT 1 1/4SM BR OVC002 11/10 A3010 RMK
AO2 SLP194 T01060100 10122 20106 401280094 58005





000
SAUS44 KSHV 190556 COR
MTRBKB
METAR KBKB 190554Z AUTO VRB03KT 2 1/2SM BR OVC003 12/10 A3009 RMK
AO2 SLP462 T01170100 10122 20117 401390106 56007 $





000
SAUS44 KSHV 190520
MTRAQV
SPECI KAQV 190518Z AUTO 03005KT 1 1/2SM BR OVC002 11/10 A3013 RMK
AO2 T01110100





000
SAUS44 KSHV 190505
MTRAQV
SPECI KAQV 190504Z AUTO 05004KT 2 1/2SM BR OVC003 11/10 A3013 RMK
AO2 T01110100





000
SAUS44 KSHV 190457
MTRAQV
METAR KAQV 190456Z AUTO 02004KT 3SM BR OVC003 11/10 A3013 RMK AO2
SLP203 T01110100





000
SAUS44 KSHV 190455
MTRBKB
METAR KBKB 190454Z AUTO 02003KT 7SM OVC004 12/10 A3011 RMK AO2
SLP468 T01220100 $





000
SAUS44 KSHV 190357
MTRAQV
METAR KAQV 190356Z AUTO VRB05KT 4SM BR OVC003 11/10 A3012 RMK AO2
SLP199 T01110100





000
SAUS44 KSHV 190357
MTRAQV
METAR KAQV 190356Z AUTO VRB05KT 4SM BR OVC003 11/10 A3012 RMK AO2
SLP199 T01110100





000
SAUS44 KSHV 190356
MTRBKB
METAR KBKB 190354Z AUTO VRB03KT 6SM BR OVC004 12/10 A3011 RMK AO2
SLP469 T01220100 $





000
SAUS44 KSHV 190356
MTRBKB
METAR KBKB 190354Z AUTO VRB03KT 6SM BR OVC004 12/10 A3011 RMK AO2
SLP469 T01220100 $





000
SAUS44 KSHV 190257
MTRAQV
METAR KAQV 190256Z AUTO VRB03KT 8SM OVC004 12/10 A3012 RMK AO2
SLP200 T01170100 51007





000
SAUS44 KSHV 190256
MTRBKB
METAR KBKB 190254Z AUTO 00000KT 5SM BR OVC002 12/10 A3011 RMK AO2
SLP468 T01220100 50006 $





000
SAUS44 KSHV 190157
MTRAQV
METAR KAQV 190156Z AUTO 07003KT 9SM OVC006 12/10 A3012 RMK AO2
SLP199 T01170100





000
SAUS44 KSHV 190157
MTRAQV
METAR KAQV 190156Z AUTO 07003KT 9SM OVC006 12/10 A3012 RMK AO2
SLP199 T01170100





000
SAUS44 KSHV 190156
MTRBKB
METAR KBKB 190154Z AUTO VRB03KT 5SM BR OVC003 12/11 A3011 RMK AO2
SLP225 T01220106 $





000
SAUS44 KSHV 190156
MTRBKB
METAR KBKB 190154Z AUTO VRB03KT 5SM BR OVC003 12/11 A3011 RMK AO2
SLP225 T01220106 $





000
SAUS44 KSHV 190058
MTRAQV
METAR KAQV 190056Z AUTO 00000KT 10SM OVC007 12/10 A3011 RMK AO2
SLP197 T01220100





000
SAUS44 KSHV 190056
MTRBKB
METAR KBKB 190054Z AUTO VRB03KT 6SM BR OVC003 12/10 A3010 RMK AO2
SLP222 T01220100 $





000
SAUS44 KSHV 190033
MTRAQV
SPECI KAQV 190032Z AUTO 00000KT 10SM OVC009 12/10 A3011 RMK AO2
T01220100





000
SAUS44 KSHV 182358
MTRAQV
METAR KAQV 182356Z AUTO 00000KT 10SM OVC010 12/10 A3010 RMK AO2
SLP193 T01220100 10128 20111 51007





000
SAUS44 KSHV 182356
MTRBKB
METAR KBKB 182354Z AUTO 00000KT 7SM OVC003 12/10 A3009 RMK AO2
SLP218 60000 T01220100 10139 20117 51008 $





000
SAUS44 KSHV 182309
MTRAQV
SPECI KAQV 182308Z AUTO 00000KT 10SM OVC010 12/10 A3009 RMK AO2
T01220100





000
SAUS44 KSHV 182257
MTRAQV
METAR KAQV 182256Z AUTO 00000KT 10SM OVC009 12/10 A3009 RMK AO2 CIG
007V011 SLP191 T01220100





000
SAUS44 KSHV 182256
MTRBKB
METAR KBKB 182254Z AUTO 03003KT 8SM OVC004 13/11 A3008 RMK AO2
SLP214 T01280106 $





000
SAUS44 KSHV 182157
MTRAQV
METAR KAQV 182156Z AUTO VRB03KT 10SM OVC007 13/11 A3009 RMK AO2
SLP189 T01280106





000
SAUS44 KSHV 182157
MTRAQV
METAR KAQV 182156Z AUTO VRB03KT 10SM OVC007 13/11 A3009 RMK AO2
SLP189 T01280106





000
SAUS44 KSHV 182155
MTRBKB
METAR KBKB 182154Z AUTO VRB03KT 9SM OVC004 13/11 A3008 RMK AO2 RAE03
SLP215 P0000 T01330106 $





000
SAUS44 KSHV 182141
MTRBKB
SPECI KBKB 182140Z AUTO 00000KT 10SM OVC004 13/11 A3007 RMK AO2
RAE03 P0000 T01330111 $





000
SAUS44 KSHV 182057
MTRAQV
METAR KAQV 182056Z AUTO 05004KT 10SM OVC007 13/11 A3008 RMK AO2
SLP185 T01280106 56015





000
SAUS44 KSHV 182055
MTRBKB
METAR KBKB 182054Z AUTO 00000KT 4SM -RA OVC006 13/11 A3006 RMK AO2
RAB49 SLP209 P0000 60000 T01330106 56017 $





    US Dept of Commerce
    National Oceanic and Atmospheric Administration
    National Weather Service
    1325 East West Highway
    Silver Spring, MD 20910
    Page Author: NWS Internet Services Team
Disclaimer
Information Quality
Credits
Glossary
Privacy Policy
Freedom of Information Act (FOIA)
About Us
Career Opportunities